Time;durP1;ratioP1;P1;durP2;ratioP2;P2;SDS_P1;SDS_P2;PMS_P1;PMS_P2;Temp;Humidity;BMP_temperature;BMP_pressure;BME280_temperature;BME280_humidity;BME280_pressure;Samples;Min_cycle;Max_cycle;Signal;HPM_P1;HPM_P2
2023/04/02 00:00:20;;;;;;;10.40;6.90;;;;;;;6.71;82.04;99084.55;104399;1256;138154;-69
2023/04/02 00:06:24;;;;;;;10.60;7.20;;;;;;;6.70;81.63;99089.41;100102;1296;636187;-68
2023/04/02 00:08:57;;;;;;;10.50;7.30;;;;;;;6.67;81.77;99094.36;102697;1267;94407;-69
2023/04/02 00:11:34;;;;;;;10.50;7.40;;;;;;;6.68;81.86;99097.10;102583;1267;136880;-69
2023/04/02 00:14:25;;;;;;;11.60;8.00;;;;;;;6.68;81.60;99100.72;103342;1261;94389;-70
2023/04/02 00:16:54;;;;;;;9.90;7.40;;;;;;;6.67;81.79;99102.48;103422;1257;137032;-70
2023/04/02 00:19:30;;;;;;;10.30;7.20;;;;;;;6.65;81.68;99106.15;103135;1260;232760;-70
2023/04/02 00:22:00;;;;;;;10.20;7.70;;;;;;;6.64;81.85;99103.08;103474;1254;94308;-69
2023/04/02 00:24:30;;;;;;;9.20;6.70;;;;;;;6.64;82.01;99103.92;103411;1254;107773;-69
2023/04/02 00:26:57;;;;;;;9.60;7.00;;;;;;;6.62;81.93;99106.05;103351;1254;94421;-70
2023/04/02 00:29:28;;;;;;;9.90;7.40;;;;;;;6.61;81.74;99111.11;103381;1254;137074;-70
2023/04/02 00:31:58;;;;;;;9.70;7.20;;;;;;;6.61;81.84;99110.25;103354;1254;108100;-70
2023/04/02 00:34:31;;;;;;;11.50;7.90;;;;;;;6.60;81.87;99108.05;103272;1255;137576;-70
2023/04/02 00:37:00;;;;;;;12.20;7.90;;;;;;;6.59;81.97;99111.86;103305;1259;107771;-70
2023/04/02 00:39:32;;;;;;;12.00;8.60;;;;;;;6.55;81.96;99114.10;103379;1253;94978;-70
2023/04/02 00:42:04;;;;;;;14.60;8.90;;;;;;;6.54;82.20;99118.96;103580;1254;138994;-70
2023/04/02 00:44:34;;;;;;;12.40;9.10;;;;;;;6.54;82.30;99116.39;103413;1254;107516;-70
2023/04/02 00:47:10;;;;;;;12.40;9.10;;;;;;;6.50;82.30;99118.92;103374;1254;137593;-69
2023/04/02 00:49:40;;;;;;;12.20;8.70;;;;;;;6.46;82.35;99117.34;103379;1254;108349;-71
2023/04/02 00:52:21;;;;;;;17.90;8.70;;;;;;;6.43;82.50;99120.86;103263;1254;137630;-70
2023/04/02 00:54:51;;;;;;;12.70;9.20;;;;;;;6.41;82.50;99120.80;103438;1254;109139;-70
2023/04/02 00:57:25;;;;;;;11.90;8.80;;;;;;;6.38;82.46;99119.34;103406;1254;106838;-70
2023/04/02 01:00:14;;;;;;;12.80;8.90;;;;;;;6.32;82.52;99121.09;103205;1258;137451;-70
2023/04/02 01:02:42;;;;;;;9.10;6.80;;;;;;;6.27;82.23;99125.20;103299;1257;107749;-70
2023/04/02 01:05:23;;;;;;;9.70;7.10;;;;;;;6.25;82.10;99129.25;103233;1260;137288;-70
2023/04/02 01:08:03;;;;;;;11.40;7.10;;;;;;;6.22;82.08;99127.30;103499;1256;108667;-70
2023/04/02 01:10:45;;;;;;;9.40;7.10;;;;;;;6.20;81.85;99126.48;103401;1258;137904;-71
2023/04/02 01:13:25;;;;;;;10.00;7.40;;;;;;;6.18;81.91;99127.08;103942;1254;94915;-71
2023/04/02 01:15:59;;;;;;;11.60;7.00;;;;;;;6.13;81.61;99130.69;103300;1257;108628;-71
2023/04/02 01:18:45;;;;;;;10.10;6.70;;;;;;;6.09;81.47;99130.98;103353;1259;95275;-70
2023/04/02 01:21:36;;;;;;;7.50;5.90;;;;;;;6.06;81.72;99131.91;103338;1259;108976;-71
2023/04/02 01:24:07;;;;;;;9.30;6.20;;;;;;;6.06;81.93;99133.98;103081;1259;137499;-70
2023/04/02 01:26:50;;;;;;;9.50;6.60;;;;;;;6.06;81.92;99133.98;103221;1257;95518;-70
2023/04/02 01:29:23;;;;;;;8.50;6.50;;;;;;;6.05;81.78;99138.86;103140;1257;137235;-70
2023/04/02 01:31:53;;;;;;;8.50;6.70;;;;;;;6.04;82.02;99140.77;103283;1257;95160;-71
2023/04/02 01:34:23;;;;;;;8.40;6.30;;;;;;;6.04;81.83;99141.30;103503;1256;137414;-71
2023/04/02 01:37:03;;;;;;;9.60;6.80;;;;;;;6.03;81.74;99143.23;103067;1256;108679;-72
2023/04/02 01:39:45;;;;;;;8.70;7.00;;;;;;;6.00;81.81;99147.80;103257;1256;95106;-69
2023/04/02 01:42:19;;;;;;;8.10;6.50;;;;;;;5.99;82.04;99150.09;103113;1256;137921;-81
2023/04/02 01:44:51;;;;;;;9.00;6.50;;;;;;;5.99;81.86;99153.55;103254;1257;95081;-72
2023/04/02 01:47:23;;;;;;;7.70;5.80;;;;;;;5.97;81.88;99157.23;103092;1254;137603;-78
2023/04/02 01:49:57;;;;;;;8.70;5.80;;;;;;;5.95;81.72;99161.13;103135;1254;108544;-74
2023/04/02 01:52:40;;;;;;;6.80;5.90;;;;;;;5.94;81.63;99165.63;103717;1254;137573;-75
2023/04/02 01:55:11;;;;;;;8.10;6.00;;;;;;;5.94;81.74;99164.94;103457;1259;108258;-77
2023/04/02 01:57:44;;;;;;;8.80;6.20;;;;;;;5.95;81.88;99168.36;103788;1257;95087;-76
2023/04/02 02:00:19;;;;;;;7.20;5.60;;;;;;;5.96;81.84;99169.20;103182;1256;137334;-78
2023/04/02 02:03:14;;;;;;;8.20;5.80;;;;;;;5.96;81.71;99169.00;102350;1259;108049;-76
2023/04/02 02:05:42;;;;;;;6.10;5.00;;;;;;;5.95;81.55;99172.14;102981;1264;137488;-75
2023/04/02 02:08:25;;;;;;;5.90;5.20;;;;;;;5.92;81.29;99175.84;102771;1261;107614;-76
2023/04/02 02:10:52;;;;;;;7.70;5.50;;;;;;;5.92;81.42;99178.59;102774;1268;137735;-75
2023/04/02 02:13:21;;;;;;;6.30;5.20;;;;;;;5.91;81.35;99182.76;102841;1262;109101;-76
2023/04/02 02:15:48;;;;;;;6.80;5.20;;;;;;;5.90;81.30;99184.34;102854;1262;107300;-76
2023/04/02 02:18:22;;;;;;;6.20;5.20;;;;;;;5.88;81.36;99191.80;102711;1266;138874;-76
2023/04/02 02:20:50;;;;;;;5.50;4.80;;;;;;;5.86;81.29;99191.20;102791;1262;107530;-76
2023/04/02 02:23:18;;;;;;;6.60;5.10;;;;;;;5.85;81.20;99195.02;102828;1265;137331;-76
2023/04/02 02:25:47;;;;;;;6.50;5.40;;;;;;;5.84;81.18;99196.42;102823;1262;107867;-76
2023/04/02 02:28:21;;;;;;;7.30;5.30;;;;;;;5.83;81.48;99195.58;102705;1262;137502;-75
2023/04/02 02:30:51;;;;;;;6.30;5.30;;;;;;;5.83;81.35;99194.73;102829;1266;95550;-77
2023/04/02 02:33:25;;;;;;;7.70;5.90;;;;;;;5.81;81.39;99198.23;102848;1264;108671;-77
2023/04/02 02:35:59;;;;;;;6.70;5.20;;;;;;;5.79;81.40;99204.16;102920;1264;137479;-77
2023/04/02 02:38:53;;;;;;;8.10;5.50;;;;;;;5.77;81.25;99204.92;102813;1260;109036;-77
2023/04/02 02:41:31;;;;;;;6.10;5.20;;;;;;;5.75;81.30;99205.31;103217;1265;137634;-76
2023/04/02 02:44:05;;;;;;;6.80;5.90;;;;;;;5.73;81.36;99207.41;102880;1260;95118;-77
2023/04/02 02:46:35;;;;;;;8.40;6.40;;;;;;;5.73;81.39;99210.69;102788;1259;137459;-77
2023/04/02 02:49:06;;;;;;;7.30;6.20;;;;;;;5.73;81.43;99214.65;104241;1259;93335;-78
2023/04/02 02:51:44;;;;;;;6.90;5.90;;;;;;;5.71;81.38;99213.69;104351;1259;108567;-77
2023/04/02 02:54:17;;;;;;;8.80;6.00;;;;;;;5.68;81.29;99218.77;104192;1261;137407;-78
2023/04/02 02:56:52;;;;;;;7.10;6.10;;;;;;;5.67;81.34;99222.59;104255;1259;93263;-78
2023/04/02 02:59:22;;;;;;;7.90;6.40;;;;;;;5.69;81.76;99228.74;103415;1261;138406;-77
2023/04/02 03:01:50;;;;;;;7.30;5.80;;;;;;;5.71;81.53;99229.55;102829;1263;95010;-77
2023/04/02 03:04:22;;;;;;;9.60;6.10;;;;;;;5.73;81.76;99230.71;103664;1264;137491;-77
2023/04/02 03:06:53;;;;;;;8.70;6.30;;;;;;;5.76;81.82;99231.52;103028;1265;107242;-75
2023/04/02 03:09:30;;;;;;;8.10;6.60;;;;;;;5.78;81.73;99233.67;102922;1263;95657;-76
2023/04/02 03:12:02;;;;;;;7.80;6.50;;;;;;;5.80;81.77;99235.70;103058;1264;137952;-76
2023/04/02 03:14:35;;;;;;;7.80;6.60;;;;;;;5.82;81.77;99238.58;103609;1262;94424;-75
2023/04/02 03:17:11;;;;;;;9.30;7.00;;;;;;;5.81;81.61;99241.17;103051;1259;137403;-76
2023/04/02 03:19:44;;;;;;;9.10;7.20;;;;;;;5.81;81.70;99245.51;103997;1261;107980;-77
2023/04/02 03:22:19;;;;;;;9.90;6.80;;;;;;;5.82;81.72;99249.44;103807;1261;138002;-75
2023/04/02 03:24:55;;;;;;;9.90;7.20;;;;;;;5.84;81.59;99255.58;103021;1264;107967;-77
2023/04/02 03:27:31;;;;;;;9.40;7.20;;;;;;;5.87;81.80;99257.22;102850;1263;95150;-77
2023/04/02 03:30:21;;;;;;;8.80;6.80;;;;;;;5.88;81.78;99259.09;103092;1262;137984;-77
2023/04/02 03:32:57;;;;;;;9.90;7.70;;;;;;;5.90;81.84;99264.37;102933;1263;107512;-77
2023/04/02 03:35:41;;;;;;;11.90;8.20;;;;;;;5.93;81.91;99271.06;103050;1264;137580;-76
2023/04/02 03:38:16;;;;;;;11.10;8.00;;;;;;;5.95;82.01;99273.60;103090;1261;108179;-76
2023/04/02 03:40:52;;;;;;;11.50;8.90;;;;;;;5.97;81.92;99275.60;102917;1262;137922;-77
2023/04/02 03:43:25;;;;;;;16.80;11.60;;;;;;;5.98;82.15;99280.59;103065;1261;107567;-76
2023/04/02 03:45:59;;;;;;;12.80;9.70;;;;;;;5.97;82.11;99285.60;103271;1260;108465;-76
2023/04/02 03:48:32;;;;;;;11.30;9.10;;;;;;;5.94;81.92;99290.88;103365;1264;95105;-77
2023/04/02 03:51:05;;;;;;;16.10;10.70;;;;;;;5.92;82.06;99297.30;102944;1260;107093;-76
2023/04/02 03:53:33;;;;;;;16.00;11.40;;;;;;;5.90;82.39;99301.31;102888;1265;137999;-76
2023/04/02 03:56:03;;;;;;;15.00;11.50;;;;;;;5.85;82.19;99298.17;102816;1264;109737;-76
2023/04/02 03:58:38;;;;;;;14.60;10.70;;;;;;;5.82;82.39;99300.17;102641;1266;138067;-75
2023/04/02 04:01:17;;;;;;;14.80;11.60;;;;;;;5.80;82.65;99302.80;103097;1260;95172;-75
2023/04/02 04:03:51;;;;;;;16.50;12.20;;;;;;;5.78;82.86;99300.09;103126;1262;107857;-75
2023/04/02 04:06:27;;;;;;;17.90;12.60;;;;;;;5.74;82.97;99300.02;103083;1260;137701;-75
2023/04/02 04:09:01;;;;;;;19.70;13.20;;;;;;;5.72;83.10;99307.48;102907;1265;109767;-75
2023/04/02 04:11:34;;;;;;;20.10;14.00;;;;;;;5.68;83.26;99307.79;102785;1265;138147;-75
2023/04/02 04:14:07;;;;;;;19.10;13.80;;;;;;;5.60;82.99;99316.80;103317;1261;95083;-75
2023/04/02 04:16:47;;;;;;;18.90;13.20;;;;;;;5.55;83.09;99322.09;102676;1266;137956;-75
2023/04/02 04:19:21;;;;;;;18.80;12.90;;;;;;;5.48;83.11;99324.70;102937;1264;95208;-75
2023/04/02 04:21:48;;;;;;;19.40;13.70;;;;;;;5.48;83.41;99332.81;102967;1260;108464;-75
2023/04/02 04:24:25;;;;;;;18.20;12.90;;;;;;;5.45;83.29;99330.11;103391;1265;137982;-75
2023/04/02 04:27:08;;;;;;;18.20;13.60;;;;;;;5.42;83.16;99336.04;103448;1265;96469;-75
2023/04/02 04:29:47;;;;;;;20.90;14.10;;;;;;;5.40;83.11;99339.73;102826;1262;138025;-75
2023/04/02 04:32:30;;;;;;;20.30;14.50;;;;;;;5.38;82.77;99344.59;102909;1263;96326;-75
2023/04/02 04:35:07;;;;;;;27.00;17.10;;;;;;;5.36;82.76;99341.71;102907;1266;138183;-74
2023/04/02 04:37:39;;;;;;;20.80;14.20;;;;;;;5.36;82.64;99345.17;103708;1261;107354;-75
2023/04/02 04:40:18;;;;;;;20.30;13.90;;;;;;;5.35;82.46;99342.62;103174;1261;138048;-75
2023/04/02 04:42:53;;;;;;;18.70;12.90;;;;;;;5.33;82.33;99347.83;103284;1265;109055;-75
2023/04/02 04:45:47;;;;;;;20.00;13.80;;;;;;;5.32;82.22;99353.02;102927;1260;96449;-76
2023/04/02 04:48:22;;;;;;;21.80;13.50;;;;;;;5.29;82.17;99356.04;102973;1266;138190;-77
2023/04/02 04:50:53;;;;;;;18.60;13.10;;;;;;;5.27;81.78;99368.00;103680;1264;107769;-78
2023/04/02 04:53:25;;;;;;;18.00;13.10;;;;;;;5.23;81.92;99368.77;102963;1268;138053;-78
2023/04/02 04:55:55;;;;;;;18.30;13.00;;;;;;;5.25;81.83;99378.39;103209;1264;107728;-78
2023/04/02 04:58:40;;;;;;;18.70;12.30;;;;;;;5.23;81.66;99377.40;103556;1265;138811;-78
2023/04/02 05:01:17;;;;;;;21.00;13.20;;;;;;;5.23;81.53;99381.02;102926;1265;109507;-77
2023/04/02 05:03:51;;;;;;;19.50;13.20;;;;;;;5.24;81.41;99385.30;102899;1263;108508;-77
2023/04/02 05:06:25;;;;;;;18.70;13.40;;;;;;;5.26;81.49;99392.48;103026;1263;138104;-78
2023/04/02 05:08:56;;;;;;;20.40;13.60;;;;;;;5.27;81.43;99388.15;103876;1261;106616;-78
2023/04/02 05:11:30;;;;;;;21.40;15.00;;;;;;;5.28;81.44;99392.44;103051;1261;138407;-78
2023/04/02 05:14:02;;;;;;;25.40;16.10;;;;;;;5.28;81.49;99396.76;103296;1265;109568;-77
2023/04/02 05:16:36;;;;;;;24.70;17.10;;;;;;;5.28;81.55;99401.23;103203;1261;138212;-76
2023/04/02 05:19:11;;;;;;;27.10;18.50;;;;;;;5.25;81.78;99406.46;102880;1265;96508;-77
2023/04/02 05:21:43;;;;;;;27.00;18.00;;;;;;;5.23;81.68;99413.41;102969;1260;108398;-78
2023/04/02 05:24:37;;;;;;;25.90;16.80;;;;;;;5.21;81.67;99415.54;102840;1265;138032;-78
2023/04/02 05:27:18;;;;;;;25.20;16.10;;;;;;;5.19;81.44;99410.91;103312;1263;109307;-76
2023/04/02 05:29:50;;;;;;;24.90;16.80;;;;;;;5.16;81.30;99409.25;103302;1263;138284;-78
2023/04/02 05:32:23;;;;;;;27.00;16.60;;;;;;;5.15;81.56;99417.20;102895;1263;96502;-77
2023/04/02 05:35:18;;;;;;;24.40;16.20;;;;;;;5.11;81.47;99428.34;102878;1263;137917;-78
2023/04/02 05:37:48;;;;;;;26.70;16.60;;;;;;;5.08;81.39;99436.50;103014;1263;96564;-78
2023/04/02 05:40:27;;;;;;;28.50;17.60;;;;;;;5.06;81.37;99437.08;102841;1261;138105;-77
2023/04/02 05:42:54;;;;;;;;;;;;;;;5.03;81.45;99438.17;103549;1260;107358;-77
2023/04/02 05:45:31;;;;;;;27.20;17.80;;;;;;;4.96;81.39;99432.98;103346;1265;97001;-77
2023/04/02 05:48:04;;;;;;;27.50;17.30;;;;;;;4.92;81.31;99443.08;102819;1261;137905;-77
2023/04/02 05:50:41;;;;;;;27.20;16.90;;;;;;;4.89;81.29;99445.05;102912;1266;96448;-77
2023/04/02 05:53:21;;;;;;;25.90;16.30;;;;;;;4.89;81.21;99454.69;102854;1260;137900;-77
2023/04/02 05:55:57;;;;;;;24.00;15.90;;;;;;;4.90;81.19;99457.41;103083;1266;107737;-77
2023/04/02 05:58:31;;;;;;;22.90;14.40;;;;;;;4.92;81.19;99460.46;103350;1260;137298;-77
2023/04/02 06:01:22;;;;;;;21.40;13.60;;;;;;;4.95;80.85;99460.91;103434;1265;107469;-77
2023/04/02 06:03:57;;;;;;;19.60;12.20;;;;;;;4.94;80.61;99464.20;103262;1261;97810;-77
2023/04/02 06:06:58;;;;;;;18.70;12.70;;;;;;;4.94;80.21;99470.26;103072;1260;109466;-79
2023/04/02 06:09:36;;;;;;;17.60;12.10;;;;;;;4.92;80.14;99470.98;102809;1263;107575;-77
2023/04/02 06:12:17;;;;;;;15.70;11.10;;;;;;;4.90;79.99;99480.16;102936;1261;138174;-77
2023/04/02 06:14:46;;;;;;;17.20;11.30;;;;;;;4.89;79.99;99481.56;103625;1261;108348;-77
2023/04/02 06:17:16;;;;;;;15.90;11.70;;;;;;;4.90;80.07;99488.25;103495;1264;138401;-76
2023/04/02 06:19:47;;;;;;;17.40;11.10;;;;;;;4.91;80.15;99494.42;103586;1260;109467;-77
2023/04/02 06:22:32;;;;;;;15.40;10.70;;;;;;;4.91;79.72;99495.30;103479;1260;138811;-77
2023/04/02 06:25:06;;;;;;;13.90;9.80;;;;;;;4.89;79.39;99499.63;103293;1261;96346;-77
2023/04/02 06:27:41;;;;;;;13.30;9.50;;;;;;;4.86;79.18;99503.49;102906;1260;108262;-76
2023/04/02 06:30:17;;;;;;;13.00;9.10;;;;;;;4.83;79.25;99504.57;103227;1261;138078;-78
2023/04/02 06:32:47;;;;;;;12.60;9.00;;;;;;;4.80;79.37;99510.14;103204;1260;109184;-78
2023/04/02 06:35:16;;;;;;;13.00;9.00;;;;;;;4.80;79.23;99512.90;102757;1264;137857;-76
2023/04/02 06:37:49;;;;;;;16.00;9.30;;;;;;;4.79;79.53;99509.30;102931;1264;96533;-76
2023/04/02 06:40:41;;;;;;;13.10;9.30;;;;;;;4.79;79.34;99516.20;102743;1260;138503;-76
2023/04/02 06:43:25;;;;;;;13.40;9.80;;;;;;;4.76;79.41;99513.31;102876;1260;96532;-77
2023/04/02 06:46:05;;;;;;;12.60;9.10;;;;;;;4.74;79.56;99515.09;102897;1264;110509;-76
2023/04/02 06:49:06;;;;;;;15.30;9.50;;;;;;;4.72;79.85;99526.85;102711;1260;107623;-77
2023/04/02 06:51:48;;;;;;;15.10;9.90;;;;;;;4.70;79.82;99532.58;102958;1260;96418;-76
2023/04/02 06:54:25;;;;;;;14.20;9.30;;;;;;;4.65;79.82;99535.58;103407;1260;138263;-77
2023/04/02 06:56:57;;;;;;;12.60;9.60;;;;;;;4.64;80.18;99543.00;102911;1261;96457;-76
2023/04/02 06:59:29;;;;;;;13.50;9.60;;;;;;;4.63;80.10;99542.69;103213;1260;137728;-77
2023/04/02 07:02:24;;;;;;;16.80;9.40;;;;;;;4.62;79.94;99547.52;102864;1261;107564;-78
2023/04/02 07:05:13;;;;;;;12.70;9.50;;;;;;;4.60;80.25;99545.50;102807;1260;138582;-78
2023/04/02 07:07:45;;;;;;;12.40;9.40;;;;;;;4.58;80.03;99549.52;102917;1264;108646;-77
2023/04/02 07:10:14;;;;;;;15.00;9.80;;;;;;;4.57;80.29;99548.67;102831;1260;96525;-77
2023/04/02 07:12:42;;;;;;;12.40;9.30;;;;;;;4.52;80.33;99548.07;103432;1264;109856;-77
2023/04/02 07:15:14;;;;;;;13.70;8.80;;;;;;;4.51;80.34;99554.63;102893;1260;108064;-77
2023/04/02 07:17:42;;;;;;;13.00;9.20;;;;;;;4.53;80.83;99557.36;102736;1265;138125;-77
2023/04/02 07:20:27;;;;;;;14.60;9.10;;;;;;;4.56;80.55;99557.45;103411;1261;107727;-77
2023/04/02 07:22:56;;;;;;;14.00;9.90;;;;;;;4.60;80.65;99560.33;102848;1264;138230;-78
2023/04/02 07:25:24;;;;;;;14.10;9.40;;;;;;;4.62;80.80;99565.08;102992;1260;110448;-78
2023/04/02 07:27:53;;;;;;;14.40;9.90;;;;;;;4.62;80.59;99571.63;103313;1265;107824;-76
2023/04/02 07:30:23;;;;;;;13.20;9.70;;;;;;;4.62;80.66;99576.96;102817;1260;137772;-76
2023/04/02 07:33:15;;;;;;;12.80;9.60;;;;;;;4.62;80.95;99584.20;102853;1261;108648;-76
2023/04/02 07:35:56;;;;;;;15.50;9.90;;;;;;;4.59;80.87;99585.64;102712;1267;137878;-76
2023/04/02 07:38:35;;;;;;;14.20;10.30;;;;;;;4.57;80.94;99586.02;102916;1261;109909;-76
2023/04/02 07:41:18;;;;;;;13.70;10.10;;;;;;;4.53;81.05;99592.30;102721;1260;138001;-76
2023/04/02 07:43:46;;;;;;;12.50;9.10;;;;;;;4.49;80.78;99594.95;102823;1261;96580;-77
2023/04/02 07:46:18;;;;;;;15.20;9.40;;;;;;;4.46;80.91;99600.32;102849;1261;107102;-76
2023/04/02 07:48:55;;;;;;;12.90;9.60;;;;;;;4.43;80.98;99604.00;103131;1260;96370;-76
2023/04/02 07:51:24;;;;;;;12.70;9.30;;;;;;;4.43;80.97;99607.09;102841;1264;111407;-77
2023/04/02 07:53:54;;;;;;;13.60;9.80;;;;;;;4.45;81.14;99605.52;103017;1260;137973;-76
2023/04/02 07:56:23;;;;;;;14.50;9.90;;;;;;;4.51;81.39;99605.92;103166;1261;98096;-76
2023/04/02 07:58:51;;;;;;;16.00;9.60;;;;;;;4.61;81.52;99603.52;102705;1260;137768;-76
2023/04/02 08:01:22;;;;;;;12.50;9.10;;;;;;;4.67;81.12;99608.05;102796;1261;96889;-74
2023/04/02 08:03:50;;;;;;;12.40;9.10;;;;;;;4.68;80.93;99612.00;103289;1260;108767;-76
2023/04/02 08:06:20;;;;;;;11.50;8.70;;;;;;;4.70;81.10;99616.26;102771;1260;137892;-75
2023/04/02 08:08:48;;;;;;;12.30;8.90;;;;;;;4.70;80.81;99622.46;102924;1260;96987;-75
2023/04/02 08:11:15;;;;;;;11.80;8.80;;;;;;;4.72;80.92;99629.66;102716;1260;137696;-75
2023/04/02 08:13:43;;;;;;;12.70;9.10;;;;;;;4.73;80.88;99635.84;103939;1260;95068;-75
2023/04/02 08:16:11;;;;;;;14.90;9.60;;;;;;;4.72;80.70;99636.02;102874;1265;111235;-75
2023/04/02 08:18:41;;;;;;;14.60;10.40;;;;;;;4.72;80.78;99636.04;102717;1260;108807;-75
2023/04/02 08:21:11;;;;;;;13.10;10.10;;;;;;;4.72;80.60;99641.20;102865;1261;96457;-75
2023/04/02 08:23:39;;;;;;;14.50;10.60;;;;;;;4.72;80.74;99647.39;102735;1261;138018;-75
2023/04/02 08:26:07;;;;;;;14.00;10.30;;;;;;;4.75;80.83;99646.13;103178;1260;97658;-76
2023/04/02 08:28:35;;;;;;;14.10;10.40;;;;;;;4.78;80.68;99644.35;102834;1261;138256;-76
2023/04/02 08:31:03;;;;;;;15.40;9.90;;;;;;;4.82;80.77;99641.86;103192;1260;108666;-75
2023/04/02 08:33:31;;;;;;;13.50;10.70;;;;;;;4.83;80.62;99644.94;103431;1260;96518;-76
2023/04/02 08:35:58;;;;;;;14.50;10.30;;;;;;;4.86;80.49;99656.63;102771;1260;138388;-76
2023/04/02 08:38:25;;;;;;;13.80;10.50;;;;;;;4.89;80.47;99670.70;103311;1261;96537;-77
2023/04/02 08:41:06;;;;;;;13.40;10.40;;;;;;;4.84;80.37;99675.94;102927;1260;137792;-76
2023/04/02 08:43:56;;;;;;;13.80;10.60;;;;;;;4.80;79.83;99686.70;102844;1264;109609;-76
2023/04/02 08:46:30;;;;;;;13.60;10.30;;;;;;;4.77;79.81;99688.13;102709;1264;138194;-75
2023/04/02 08:49:01;;;;;;;14.90;10.20;;;;;;;4.72;80.00;99690.62;102905;1260;108588;-76
2023/04/02 08:51:36;;;;;;;16.00;10.60;;;;;;;4.70;80.02;99690.14;102982;1260;96322;-76
2023/04/02 08:54:28;;;;;;;13.10;10.10;;;;;;;4.70;80.14;99696.86;102959;1258;139443;-75
2023/04/02 08:57:04;;;;;;;12.70;9.50;;;;;;;4.70;80.07;99698.58;102857;1260;107528;-76
2023/04/02 08:59:41;;;;;;;12.10;9.20;;;;;;;4.72;80.10;99698.37;102774;1261;137967;-76
2023/04/02 09:02:28;;;;;;;13.20;8.60;;;;;;;4.72;79.90;99704.91;102912;1260;109272;-76
2023/04/02 09:04:58;;;;;;;10.80;8.00;;;;;;;4.72;80.05;99709.91;102783;1260;138089;-76
2023/04/02 09:07:27;;;;;;;11.50;8.70;;;;;;;4.73;79.96;99706.80;102867;1260;109572;-76
2023/04/02 09:09:55;;;;;;;12.10;8.60;;;;;;;4.75;79.85;99710.20;102811;1260;107547;-77
2023/04/02 09:12:27;;;;;;;10.90;7.90;;;;;;;4.76;79.72;99710.70;103002;1263;137803;-78
2023/04/02 09:15:06;;;;;;;14.30;9.20;;;;;;;4.75;79.69;99715.36;102926;1264;107168;-78
2023/04/02 09:17:36;;;;;;;11.70;8.90;;;;;;;4.76;79.71;99714.66;102759;1261;137854;-76
2023/04/02 09:20:31;;;;;;;12.20;8.60;;;;;;;4.78;79.79;99712.55;102871;1260;110088;-69
2023/04/02 09:22:59;;;;;;;10.50;7.90;;;;;;;4.82;80.58;99716.45;102705;1260;138441;-70
2023/04/02 09:25:30;;;;;;;11.30;7.70;;;;;;;4.84;80.24;99718.29;102840;1260;97062;-69
2023/04/02 09:28:04;;;;;;;11.40;8.50;;;;;;;4.88;80.21;99723.77;102616;1260;107330;-71
2023/04/02 09:30:52;;;;;;;12.20;8.80;;;;;;;4.95;80.83;99721.40;102634;1260;137850;-70
2023/04/02 09:33:20;;;;;;;11.90;7.90;;;;;;;5.04;81.02;99719.69;102722;1260;109689;-66
2023/04/02 09:35:57;;;;;;;14.40;10.30;;;;;;;5.15;81.71;99719.83;102679;1261;137791;-65
2023/04/02 09:38:31;;;;;;;11.00;8.10;;;;;;;5.33;82.56;99724.81;102830;1260;96431;-83
2023/04/02 09:41:22;;;;;;;8.20;6.60;;;;;;;5.46;80.59;99724.05;104142;1260;137643;-76
2023/04/02 09:43:49;;;;;;;11.40;6.90;;;;;;;5.50;80.14;99728.46;104227;1259;94549;-71
2023/04/02 09:46:29;;;;;;;9.30;6.70;;;;;;;5.53;79.77;99729.78;104120;1260;137866;-74
2023/04/02 09:48:59;;;;;;;9.90;6.50;;;;;;;5.54;79.40;99729.05;103872;1259;106841;-69
2023/04/02 09:51:30;;;;;;;10.60;7.10;;;;;;;5.56;79.47;99730.41;103031;1259;96540;-68
2023/04/02 09:54:13;;;;;;;8.60;6.30;;;;;;;5.58;79.53;99731.94;102803;1259;138105;-74
2023/04/02 09:56:59;;;;;;;7.30;5.60;;;;;;;5.59;79.25;99740.53;102919;1264;96481;-72
2023/04/02 09:59:27;;;;;;;7.20;4.80;;;;;;;5.60;79.06;99742.77;102861;1259;137600;-71
2023/04/02 10:02:02;;;;;;;8.30;4.70;;;;;;;5.58;78.86;99748.31;102975;1259;106947;-73
2023/04/02 10:04:42;;;;;;;6.20;4.40;;;;;;;5.55;78.36;99752.84;102853;1259;137757;-72
2023/04/02 10:07:34;;;;;;;5.80;4.30;;;;;;;5.51;78.39;99758.09;103580;1259;106844;-75
2023/04/02 10:10:18;;;;;;;7.70;4.70;;;;;;;5.50;78.54;99756.05;102851;1259;96527;-74
2023/04/02 10:12:49;;;;;;;8.30;5.20;;;;;;;5.44;78.87;99760.31;102857;1259;110615;-78
2023/04/02 10:15:21;;;;;;;6.20;4.70;;;;;;;5.52;80.98;99766.00;102707;1261;108089;-75
2023/04/02 10:17:57;;;;;;;6.60;4.20;;;;;;;5.60;80.43;99769.48;102729;1259;137734;-75
2023/04/02 10:20:29;;;;;;;8.60;5.40;;;;;;;5.64;79.69;99774.41;102928;1259;107354;-74
2023/04/02 10:23:05;;;;;;;6.40;4.40;;;;;;;5.60;78.93;99776.73;102720;1263;137560;-71
2023/04/02 10:25:42;;;;;;;5.50;4.00;;;;;;;5.54;78.23;99783.21;102925;1260;108732;-73
2023/04/02 10:28:24;;;;;;;5.90;4.60;;;;;;;5.46;78.42;99784.23;102840;1262;107333;-74
2023/04/02 10:31:01;;;;;;;7.10;4.70;;;;;;;5.38;78.70;99782.48;102852;1259;96360;-74
2023/04/02 10:33:35;;;;;;;6.90;5.00;;;;;;;5.33;78.92;99783.09;102870;1259;107516;-74
2023/04/02 10:36:09;;;;;;;6.00;4.20;;;;;;;5.23;78.72;99796.73;102810;1263;138600;-72
2023/04/02 10:38:51;;;;;;;6.90;4.70;;;;;;;5.13;78.88;99793.09;102869;1259;107932;-73
2023/04/02 10:41:31;;;;;;;4.80;4.00;;;;;;;5.09;78.98;99800.07;102787;1260;137650;-74
2023/04/02 10:44:19;;;;;;;6.30;4.70;;;;;;;5.08;79.16;99806.80;102847;1259;96447;-74
2023/04/02 10:46:56;;;;;;;5.70;4.40;;;;;;;5.08;79.40;99806.46;102710;1259;137710;-74
2023/04/02 10:49:32;;;;;;;4.80;4.30;;;;;;;5.01;79.37;99813.46;102896;1259;96616;-75
2023/04/02 10:52:16;;;;;;;6.40;4.70;;;;;;;4.96;79.74;99817.01;102851;1259;111429;-75
2023/04/02 10:54:49;;;;;;;6.50;5.00;;;;;;;4.96;80.15;99821.12;102754;1259;137528;-75
2023/04/02 10:57:35;;;;;;;6.90;5.40;;;;;;;4.93;80.19;99823.06;102890;1259;96560;-74
2023/04/02 11:00:15;;;;;;;7.70;5.50;;;;;;;4.89;80.24;99824.34;102786;1259;138304;-72
2023/04/02 11:02:47;;;;;;;7.90;5.90;;;;;;;4.81;80.20;99834.96;102784;1259;96344;-74
2023/04/02 11:05:25;;;;;;;8.70;6.00;;;;;;;4.74;80.73;99841.44;102649;1263;137841;-73
2023/04/02 11:08:04;;;;;;;10.50;6.20;;;;;;;4.72;81.10;99849.40;102730;1257;107713;-71
2023/04/02 11:10:39;;;;;;;6.60;5.10;;;;;;;4.70;81.35;99856.34;104256;1258;138303;-70
2023/04/02 11:13:20;;;;;;;8.00;6.40;;;;;;;4.68;81.36;99854.48;104273;1259;108178;-73
2023/04/02 11:15:48;;;;;;;11.50;7.70;;;;;;;4.65;81.21;99856.72;104265;1258;94484;-74
2023/04/02 11:18:28;;;;;;;10.40;7.50;;;;;;;4.63;81.57;99854.17;104211;1257;137640;-73
2023/04/02 11:21:04;;;;;;;10.90;7.60;;;;;;;4.62;81.64;99851.61;103216;1259;108804;-73
2023/04/02 11:23:39;;;;;;;10.20;7.50;;;;;;;4.60;81.56;99858.34;102785;1259;137828;-73
2023/04/02 11:26:40;;;;;;;12.90;8.30;;;;;;;4.57;81.23;99863.23;104341;1258;107966;-73
2023/04/02 11:29:28;;;;;;;12.50;9.10;;;;;;;4.50;81.46;99871.25;104184;1257;138702;-74
2023/04/02 11:32:27;;;;;;;13.20;9.70;;;;;;;4.46;81.29;99878.16;104297;1257;110061;-72
2023/04/02 11:35:25;;;;;;;12.80;9.60;;;;;;;4.44;80.94;99890.77;104209;1259;138760;-74
2023/04/02 11:37:53;;;;;;;12.40;9.00;;;;;;;4.43;81.30;99893.19;104289;1257;95062;-77
2023/04/02 11:40:46;;;;;;;10.90;8.30;;;;;;;4.42;81.07;99893.20;104285;1257;107806;-74
2023/04/02 11:43:50;;;;;;;12.00;8.60;;;;;;;4.41;81.38;99894.42;104279;1257;94462;-79
2023/04/02 11:46:39;;;;;;;13.40;9.70;;;;;;;4.42;81.35;99896.30;104344;1257;109862;-72
2023/04/02 11:49:36;;;;;;;13.60;9.40;;;;;;;4.46;81.37;99904.33;103270;1261;107847;-70
2023/04/02 11:52:05;;;;;;;11.90;9.10;;;;;;;4.56;81.78;99909.55;102906;1262;97621;-72
2023/04/02 11:54:42;;;;;;;12.40;9.30;;;;;;;4.66;81.68;99913.39;102838;1257;137761;-68
2023/04/02 11:57:23;;;;;;;12.00;9.30;;;;;;;4.74;81.92;99914.48;102891;1261;96451;-72
2023/04/02 12:00:16;;;;;;;12.80;8.80;;;;;;;4.84;81.61;99912.96;102920;1261;137672;-76
2023/04/02 12:03:05;;;;;;;17.70;11.80;;;;;;;4.91;81.10;99916.32;102894;1259;107972;-70